sensor_id;sensor_type;location;lat;lon;timestamp;pressure;altitude;pressure_sealevel;temperature;humidity
13553;BME280;6847;48.830;9.116;2023-04-28T00:00:05;97723.94;;;15.68;43.83
13553;BME280;6847;48.830;9.116;2023-04-28T00:02:37;97739.41;;;15.73;44.09
13553;BME280;6847;48.830;9.116;2023-04-28T00:05:05;97729.28;;;15.73;44.08
13553;BME280;6847;48.830;9.116;2023-04-28T00:07:33;97639.97;;;15.26;44.05
13553;BME280;6847;48.830;9.116;2023-04-28T00:09:59;97720.47;;;15.76;44.03
13553;BME280;6847;48.830;9.116;2023-04-28T00:12:26;97719.34;;;15.77;43.96
13553;BME280;6847;48.830;9.116;2023-04-28T00:14:53;97715.97;;;15.80;44.14
13553;BME280;6847;48.830;9.116;2023-04-28T00:17:19;97718.09;;;15.83;44.26
13553;BME280;6847;48.830;9.116;2023-04-28T00:19:48;97713.75;;;15.82;44.08
13553;BME280;6847;48.830;9.116;2023-04-28T00:22:15;97659.47;;;15.50;44.33
13553;BME280;6847;48.830;9.116;2023-04-28T00:24:41;97709.91;;;15.83;44.17
13553;BME280;6847;48.830;9.116;2023-04-28T00:27:08;97703.78;;;15.86;44.25
13553;BME280;6847;48.830;9.116;2023-04-28T00:29:36;97708.63;;;15.89;44.25
13553;BME280;6847;48.830;9.116;2023-04-28T00:32:04;97677.44;;;15.73;44.29
13553;BME280;6847;48.830;9.116;2023-04-28T00:34:31;97705.28;;;15.93;44.18
13553;BME280;6847;48.830;9.116;2023-04-28T00:37:00;97698.69;;;15.94;44.37
13553;BME280;6847;48.830;9.116;2023-04-28T00:39:29;97698.69;;;15.94;44.39
13553;BME280;6847;48.830;9.116;2023-04-28T00:41:56;97668.13;;;15.74;44.58
13553;BME280;6847;48.830;9.116;2023-04-28T00:44:23;97696.28;;;15.92;44.46
13553;BME280;6847;48.830;9.116;2023-04-28T00:46:50;97664.28;;;15.75;44.39
13553;BME280;6847;48.830;9.116;2023-04-28T00:49:16;97685.97;;;15.89;44.58
13553;BME280;6847;48.830;9.116;2023-04-28T00:51:43;97693.06;;;15.90;44.65
13553;BME280;6847;48.830;9.116;2023-04-28T00:54:13;97632.25;;;15.59;44.54
13553;BME280;6847;48.830;9.116;2023-04-28T00:56:39;97692.75;;;15.91;44.70
13553;BME280;6847;48.830;9.116;2023-04-28T00:59:06;97679.91;;;15.92;44.69
13553;BME280;6847;48.830;9.116;2023-04-28T01:01:35;97664.63;;;15.82;44.92
13553;BME280;6847;48.830;9.116;2023-04-28T01:04:02;97687.28;;;15.91;44.90
13553;BME280;6847;48.830;9.116;2023-04-28T01:06:29;97664.44;;;15.87;44.79
13553;BME280;6847;48.830;9.116;2023-04-28T01:08:58;97676.84;;;15.94;44.71
13553;BME280;6847;48.830;9.116;2023-04-28T01:11:27;97670.28;;;15.95;44.74
13553;BME280;6847;48.830;9.116;2023-04-28T01:13:53;97616.06;;;15.62;44.76
13553;BME280;6847;48.830;9.116;2023-04-28T01:16:21;97672.34;;;15.98;44.82
13553;BME280;6847;48.830;9.116;2023-04-28T01:18:52;97673.97;;;15.99;44.85
13553;BME280;6847;48.830;9.116;2023-04-28T01:21:25;97666.25;;;16.01;45.06
13553;BME280;6847;48.830;9.116;2023-04-28T01:23:59;97653.91;;;16.03;44.94
13553;BME280;6847;48.830;9.116;2023-04-28T01:26:27;97543.72;;;15.34;44.95
13553;BME280;6847;48.830;9.116;2023-04-28T01:28:56;97647.00;;;16.06;44.90
13553;BME280;6847;48.830;9.116;2023-04-28T01:31:24;97652.47;;;16.06;44.91
13553;BME280;6847;48.830;9.116;2023-04-28T01:33:51;97619.50;;;15.85;45.08
13553;BME280;6847;48.830;9.116;2023-04-28T01:36:18;97578.34;;;15.64;44.97
13553;BME280;6847;48.830;9.116;2023-04-28T01:38:46;97641.69;;;16.09;45.07
13553;BME280;6847;48.830;9.116;2023-04-28T01:41:14;97623.38;;;16.01;44.92
13553;BME280;6847;48.830;9.116;2023-04-28T01:43:41;97641.22;;;16.16;44.98
13553;BME280;6847;48.830;9.116;2023-04-28T01:46:08;97640.59;;;16.19;45.19
13553;BME280;6847;48.830;9.116;2023-04-28T01:48:36;97556.22;;;15.66;45.24
13553;BME280;6847;48.830;9.116;2023-04-28T01:51:03;97626.78;;;16.24;45.10
13553;BME280;6847;48.830;9.116;2023-04-28T01:53:31;97624.69;;;16.21;45.31
13553;BME280;6847;48.830;9.116;2023-04-28T01:56:04;97623.41;;;16.18;45.18
13553;BME280;6847;48.830;9.116;2023-04-28T01:58:37;97620.97;;;16.17;45.33
13553;BME280;6847;48.830;9.116;2023-04-28T02:01:04;97620.34;;;16.20;45.29
13553;BME280;6847;48.830;9.116;2023-04-28T02:03:31;97618.75;;;16.19;45.26
13553;BME280;6847;48.830;9.116;2023-04-28T02:05:58;97625.00;;;16.19;45.67
13553;BME280;6847;48.830;9.116;2023-04-28T02:08:24;97619.84;;;16.18;45.29
13553;BME280;6847;48.830;9.116;2023-04-28T02:10:51;97610.06;;;16.17;45.27
13553;BME280;6847;48.830;9.116;2023-04-28T02:13:19;97603.78;;;16.16;45.46
13553;BME280;6847;48.830;9.116;2023-04-28T02:15:48;97615.50;;;16.17;45.53
13553;BME280;6847;48.830;9.116;2023-04-28T02:18:16;97619.38;;;16.16;45.53
13553;BME280;6847;48.830;9.116;2023-04-28T02:20:43;97618.09;;;16.13;45.76
13553;BME280;6847;48.830;9.116;2023-04-28T02:23:09;97612.31;;;16.15;45.59
13553;BME280;6847;48.830;9.116;2023-04-28T02:25:36;97609.59;;;16.15;45.57
13553;BME280;6847;48.830;9.116;2023-04-28T02:28:03;97602.97;;;16.16;45.70
13553;BME280;6847;48.830;9.116;2023-04-28T02:30:29;97598.31;;;16.16;45.61
13553;BME280;6847;48.830;9.116;2023-04-28T02:33:01;97581.47;;;16.06;45.64
13553;BME280;6847;48.830;9.116;2023-04-28T02:35:28;97589.50;;;16.11;45.92
13553;BME280;6847;48.830;9.116;2023-04-28T02:37:55;97594.34;;;16.14;45.70
13553;BME280;6847;48.830;9.116;2023-04-28T02:40:26;97600.91;;;16.13;45.77
13553;BME280;6847;48.830;9.116;2023-04-28T02:42:57;97601.41;;;16.15;45.83
13553;BME280;6847;48.830;9.116;2023-04-28T02:45:24;97606.06;;;16.14;45.79
13553;BME280;6847;48.830;9.116;2023-04-28T02:47:51;97602.97;;;16.16;45.95
13553;BME280;6847;48.830;9.116;2023-04-28T02:50:20;97595.28;;;16.09;45.91
13553;BME280;6847;48.830;9.116;2023-04-28T02:52:47;97622.59;;;16.18;46.09
13553;BME280;6847;48.830;9.116;2023-04-28T02:55:14;97611.66;;;16.18;46.00
13553;BME280;6847;48.830;9.116;2023-04-28T02:57:50;97589.31;;;15.99;46.08
13553;BME280;6847;48.830;9.116;2023-04-28T03:00:21;97621.97;;;16.21;46.14
13553;BME280;6847;48.830;9.116;2023-04-28T03:02:48;97626.63;;;16.20;46.21
13553;BME280;6847;48.830;9.116;2023-04-28T03:05:20;97630.66;;;16.23;46.09
13553;BME280;6847;48.830;9.116;2023-04-28T03:07:47;97633.22;;;16.28;46.14
13553;BME280;6847;48.830;9.116;2023-04-28T03:10:14;97631.28;;;16.28;46.22
13553;BME280;6847;48.830;9.116;2023-04-28T03:12:42;97623.25;;;16.32;46.35
13553;BME280;6847;48.830;9.116;2023-04-28T03:15:09;97456.13;;;15.27;46.44
13553;BME280;6847;48.830;9.116;2023-04-28T03:17:37;97581.00;;;16.12;46.35
13553;BME280;6847;48.830;9.116;2023-04-28T03:20:08;97587.09;;;16.18;46.39
13553;BME280;6847;48.830;9.116;2023-04-28T03:22:37;97601.22;;;16.28;46.68
13553;BME280;6847;48.830;9.116;2023-04-28T03:25:05;97571.50;;;16.10;46.82
13553;BME280;6847;48.830;9.116;2023-04-28T03:27:31;97608.94;;;16.26;46.81
13553;BME280;6847;48.830;9.116;2023-04-28T03:29:58;97586.78;;;16.19;47.09
13553;BME280;6847;48.830;9.116;2023-04-28T03:32:25;97589.50;;;16.19;46.95
13553;BME280;6847;48.830;9.116;2023-04-28T03:34:52;97572.00;;;16.03;47.08
13553;BME280;6847;48.830;9.116;2023-04-28T03:37:19;97600.41;;;16.11;47.26
13553;BME280;6847;48.830;9.116;2023-04-28T03:39:47;97598.63;;;16.06;47.26
13553;BME280;6847;48.830;9.116;2023-04-28T03:42:17;97599.78;;;16.14;47.20
13553;BME280;6847;48.830;9.116;2023-04-28T03:44:44;97599.13;;;16.17;47.29
13553;BME280;6847;48.830;9.116;2023-04-28T03:47:11;97591.44;;;16.19;47.29
13553;BME280;6847;48.830;9.116;2023-04-28T03:49:39;97578.88;;;16.18;47.41
13553;BME280;6847;48.830;9.116;2023-04-28T03:52:14;97584.34;;;16.18;47.42
13553;BME280;6847;48.830;9.116;2023-04-28T03:54:40;97581.31;;;16.11;47.57
13553;BME280;6847;48.830;9.116;2023-04-28T03:57:09;97585.31;;;16.05;47.61
13553;BME280;6847;48.830;9.116;2023-04-28T03:59:36;97583.84;;;15.99;47.91
13553;BME280;6847;48.830;9.116;2023-04-28T04:02:03;97574.06;;;15.98;47.86
13553;BME280;6847;48.830;9.116;2023-04-28T04:04:30;97543.53;;;15.78;47.74
13553;BME280;6847;48.830;9.116;2023-04-28T04:06:58;97571.19;;;16.03;47.67
13553;BME280;6847;48.830;9.116;2023-04-28T04:09:26;97572.78;;;16.04;47.80
13553;BME280;6847;48.830;9.116;2023-04-28T04:11:54;97512.38;;;15.62;47.83
13553;BME280;6847;48.830;9.116;2023-04-28T04:14:22;97567.97;;;16.01;47.78
13553;BME280;6847;48.830;9.116;2023-04-28T04:16:51;97567.16;;;16.00;47.83
13553;BME280;6847;48.830;9.116;2023-04-28T04:19:19;97513.97;;;15.63;47.86
13553;BME280;6847;48.830;9.116;2023-04-28T04:21:48;97566.34;;;16.00;47.89
13553;BME280;6847;48.830;9.116;2023-04-28T04:24:16;97571.19;;;16.03;47.82
13553;BME280;6847;48.830;9.116;2023-04-28T04:26:45;97535.19;;;15.83;48.08
13553;BME280;6847;48.830;9.116;2023-04-28T04:29:12;97565.56;;;16.08;48.12
13553;BME280;6847;48.830;9.116;2023-04-28T04:31:40;97556.25;;;16.00;47.85
13553;BME280;6847;48.830;9.116;2023-04-28T04:34:07;97573.13;;;16.11;47.89
13553;BME280;6847;48.830;9.116;2023-04-28T04:36:35;97569.25;;;16.12;47.98
13553;BME280;6847;48.830;9.116;2023-04-28T04:39:01;97570.88;;;16.13;47.95
13553;BME280;6847;48.830;9.116;2023-04-28T04:41:28;97567.03;;;16.14;47.99
13553;BME280;6847;48.830;9.116;2023-04-28T04:43:55;97568.63;;;16.15;48.13
13553;BME280;6847;48.830;9.116;2023-04-28T04:46:22;97540.84;;;15.96;48.17
13553;BME280;6847;48.830;9.116;2023-04-28T04:48:50;97575.66;;;16.16;48.19
13553;BME280;6847;48.830;9.116;2023-04-28T04:51:17;97561.25;;;16.15;48.40
13553;BME280;6847;48.830;9.116;2023-04-28T04:53:44;97511.13;;;15.85;48.41
13553;BME280;6847;48.830;9.116;2023-04-28T04:56:11;97562.00;;;16.16;48.50
13553;BME280;6847;48.830;9.116;2023-04-28T04:58:41;97553.81;;;16.16;48.53
13553;BME280;6847;48.830;9.116;2023-04-28T05:01:11;97553.69;;;16.12;48.74
13553;BME280;6847;48.830;9.116;2023-04-28T05:03:42;97528.44;;;15.98;48.64
13553;BME280;6847;48.830;9.116;2023-04-28T05:06:10;97549.03;;;16.13;48.78
13553;BME280;6847;48.830;9.116;2023-04-28T05:08:39;97505.78;;;15.80;48.90
13553;BME280;6847;48.830;9.116;2023-04-28T05:11:06;97547.72;;;16.02;48.85
13553;BME280;6847;48.830;9.116;2023-04-28T05:13:40;97566.34;;;16.17;49.25
13553;BME280;6847;48.830;9.116;2023-04-28T05:16:10;97558.66;;;16.19;48.91
13553;BME280;6847;48.830;9.116;2023-04-28T05:18:38;97563.47;;;16.22;48.97
13553;BME280;6847;48.830;9.116;2023-04-28T05:21:05;97561.22;;;16.24;48.92
13553;BME280;6847;48.830;9.116;2023-04-28T05:23:33;97541.31;;;16.15;49.38
13553;BME280;6847;48.830;9.116;2023-04-28T05:26:00;97550.78;;;16.17;49.21
13553;BME280;6847;48.830;9.116;2023-04-28T05:28:28;97465.00;;;15.58;49.75
13553;BME280;6847;48.830;9.116;2023-04-28T05:30:57;97558.34;;;16.12;49.87
13553;BME280;6847;48.830;9.116;2023-04-28T05:33:24;97555.91;;;16.02;49.95
13553;BME280;6847;48.830;9.116;2023-04-28T05:35:50;97567.47;;;15.99;50.43
13553;BME280;6847;48.830;9.116;2023-04-28T05:38:18;97566.03;;;16.01;50.73
13553;BME280;6847;48.830;9.116;2023-04-28T05:40:47;97565.88;;;16.06;50.54
13553;BME280;6847;48.830;9.116;2023-04-28T05:43:15;97498.56;;;15.67;50.37
13553;BME280;6847;48.830;9.116;2023-04-28T05:45:43;97563.16;;;16.15;50.58
13553;BME280;6847;48.830;9.116;2023-04-28T05:48:11;97555.91;;;16.10;50.83
13553;BME280;6847;48.830;9.116;2023-04-28T05:50:39;97568.78;;;16.01;50.99
13553;BME280;6847;48.830;9.116;2023-04-28T05:53:08;97550.59;;;15.97;51.15
13553;BME280;6847;48.830;9.116;2023-04-28T05:55:43;97552.88;;;16.03;51.55
13553;BME280;6847;48.830;9.116;2023-04-28T05:58:11;97547.72;;;16.02;51.38
13553;BME280;6847;48.830;9.116;2023-04-28T06:00:39;97550.47;;;16.10;51.47
13553;BME280;6847;48.830;9.116;2023-04-28T06:03:11;97529.09;;;16.04;51.54
13553;BME280;6847;48.830;9.116;2023-04-28T06:05:39;97547.25;;;16.17;51.81
13553;BME280;6847;48.830;9.116;2023-04-28T06:08:06;97546.28;;;16.13;51.78
13553;BME280;6847;48.830;9.116;2023-04-28T06:10:33;97547.25;;;16.17;51.92
13553;BME280;6847;48.830;9.116;2023-04-28T06:13:01;97551.91;;;16.25;51.70
13553;BME280;6847;48.830;9.116;2023-04-28T06:15:32;97553.84;;;16.24;52.07
13553;BME280;6847;48.830;9.116;2023-04-28T06:18:00;97302.22;;;14.59;52.25
13553;BME280;6847;48.830;9.116;2023-04-28T06:20:31;97496.97;;;15.83;52.40
13553;BME280;6847;48.830;9.116;2023-04-28T06:22:58;97312.16;;;14.72;52.20
13553;BME280;6847;48.830;9.116;2023-04-28T06:25:28;97548.19;;;16.38;52.31
13553;BME280;6847;48.830;9.116;2023-04-28T06:28:13;97372.22;;;15.24;52.47
13553;BME280;6847;48.830;9.116;2023-04-28T06:30:43;97314.91;;;14.89;52.64
13553;BME280;6847;48.830;9.116;2023-04-28T06:33:11;97428.25;;;15.64;52.93
13553;BME280;6847;48.830;9.116;2023-04-28T06:35:38;97456.53;;;15.85;52.86
13553;BME280;6847;48.830;9.116;2023-04-28T06:38:05;97500.16;;;16.20;52.81
13553;BME280;6847;48.830;9.116;2023-04-28T06:40:32;97472.72;;;16.08;52.89
13553;BME280;6847;48.830;9.116;2023-04-28T06:43:07;97497.75;;;16.18;52.77
13553;BME280;6847;48.830;9.116;2023-04-28T06:45:34;97430.81;;;15.86;52.96
13553;BME280;6847;48.830;9.116;2023-04-28T06:48:04;97443.50;;;16.00;52.94
13553;BME280;6847;48.830;9.116;2023-04-28T06:50:33;97525.34;;;16.60;52.99
13553;BME280;6847;48.830;9.116;2023-04-28T06:53:01;97507.81;;;16.61;52.99
13553;BME280;6847;48.830;9.116;2023-04-28T06:55:29;97461.09;;;16.28;53.45
13553;BME280;6847;48.830;9.116;2023-04-28T06:57:57;97403.63;;;16.07;53.24
13553;BME280;6847;48.830;9.116;2023-04-28T07:00:25;97535.56;;;16.97;52.93
13553;BME280;6847;48.830;9.116;2023-04-28T07:02:52;97431.69;;;16.42;52.99
13553;BME280;6847;48.830;9.116;2023-04-28T07:05:24;97498.59;;;16.91;53.15
13553;BME280;6847;48.830;9.116;2023-04-28T07:07:52;97375.19;;;16.17;53.00
13553;BME280;6847;48.830;9.116;2023-04-28T07:10:19;97288.75;;;15.74;52.87
13553;BME280;6847;48.830;9.116;2023-04-28T07:12:49;97428.22;;;16.71;53.24
13553;BME280;6847;48.830;9.116;2023-04-28T07:15:16;97311.31;;;16.01;53.28
13553;BME280;6847;48.830;9.116;2023-04-28T07:17:45;97426.31;;;16.72;53.10
13553;BME280;6847;48.830;9.116;2023-04-28T07:20:14;97398.19;;;16.62;52.85
13553;BME280;6847;48.830;9.116;2023-04-28T07:22:41;97516.53;;;17.39;53.12
13553;BME280;6847;48.830;9.116;2023-04-28T07:25:10;97524.09;;;17.42;53.47
13553;BME280;6847;48.830;9.116;2023-04-28T07:27:37;97490.84;;;17.31;53.68
13553;BME280;6847;48.830;9.116;2023-04-28T07:30:06;97506.88;;;17.42;53.52
13553;BME280;6847;48.830;9.116;2023-04-28T07:32:33;97511.66;;;17.45;53.61
13553;BME280;6847;48.830;9.116;2023-04-28T07:34:59;97488.84;;;17.41;53.57
13553;BME280;6847;48.830;9.116;2023-04-28T07:37:27;97506.94;;;17.54;53.42
13553;BME280;6847;48.830;9.116;2023-04-28T07:39:56;97498.28;;;17.52;53.64
13553;BME280;6847;48.830;9.116;2023-04-28T07:42:23;97506.44;;;17.60;53.61
13553;BME280;6847;48.830;9.116;2023-04-28T07:44:49;97510.13;;;17.64;53.57
13553;BME280;6847;48.830;9.116;2023-04-28T07:47:17;97508.66;;;17.67;53.74
13553;BME280;6847;48.830;9.116;2023-04-28T07:49:44;97500.94;;;17.69;53.89
13553;BME280;6847;48.830;9.116;2023-04-28T07:52:12;97484.25;;;17.53;53.73
13553;BME280;6847;48.830;9.116;2023-04-28T07:54:42;97515.75;;;17.68;54.07
13553;BME280;6847;48.830;9.116;2023-04-28T07:57:13;97519.16;;;17.65;54.37
13553;BME280;6847;48.830;9.116;2023-04-28T07:59:39;97518.66;;;17.63;54.17
13553;BME280;6847;48.830;9.116;2023-04-28T08:02:06;97520.94;;;17.61;54.32
13553;BME280;6847;48.830;9.116;2023-04-28T08:04:39;97524.94;;;17.63;54.58
13553;BME280;6847;48.830;9.116;2023-04-28T08:07:07;97535.75;;;17.60;54.39
13553;BME280;6847;48.830;9.116;2023-04-28T08:09:35;97507.91;;;17.28;54.75
13553;BME280;6847;48.830;9.116;2023-04-28T08:12:04;97536.56;;;17.31;55.02
13553;BME280;6847;48.830;9.116;2023-04-28T08:14:32;97550.06;;;17.27;55.19
13553;BME280;6847;48.830;9.116;2023-04-28T08:17:00;97562.63;;;17.28;55.57
13553;BME280;6847;48.830;9.116;2023-04-28T08:19:29;97569.06;;;17.24;55.69
13553;BME280;6847;48.830;9.116;2023-04-28T08:21:59;97572.97;;;17.14;55.74
13553;BME280;6847;48.830;9.116;2023-04-28T08:24:30;97579.75;;;17.08;55.84
13553;BME280;6847;48.830;9.116;2023-04-28T08:27:01;97577.56;;;16.93;56.00
13553;BME280;6847;48.830;9.116;2023-04-28T08:29:29;97574.69;;;16.81;56.32
13553;BME280;6847;48.830;9.116;2023-04-28T08:31:57;97529.38;;;16.45;56.62
13553;BME280;6847;48.830;9.116;2023-04-28T08:34:25;97563.13;;;16.67;56.47
13553;BME280;6847;48.830;9.116;2023-04-28T08:36:52;97572.56;;;16.86;56.66
13553;BME280;6847;48.830;9.116;2023-04-28T08:39:20;97558.59;;;16.88;56.50
13553;BME280;6847;48.830;9.116;2023-04-28T08:41:49;97569.94;;;17.07;56.31
13553;BME280;6847;48.830;9.116;2023-04-28T08:44:18;97566.22;;;17.20;56.29
13553;BME280;6847;48.830;9.116;2023-04-28T08:46:46;97555.91;;;17.17;56.04
13553;BME280;6847;48.830;9.116;2023-04-28T08:49:31;97588.00;;;17.37;56.29
13553;BME280;6847;48.830;9.116;2023-04-28T08:52:01;97589.63;;;17.38;56.23
13553;BME280;6847;48.830;9.116;2023-04-28T08:54:30;97591.13;;;17.27;56.88
13553;BME280;6847;48.830;9.116;2023-04-28T08:56:57;97585.34;;;17.20;57.10
13553;BME280;6847;48.830;9.116;2023-04-28T08:59:24;97577.50;;;17.10;57.41
13553;BME280;6847;48.830;9.116;2023-04-28T09:02:06;97554.31;;;17.16;57.70
13553;BME280;6847;48.830;9.116;2023-04-28T09:04:38;97592.69;;;17.37;58.20
13553;BME280;6847;48.830;9.116;2023-04-28T09:07:10;97590.28;;;17.35;59.51
13553;BME280;6847;48.830;9.116;2023-04-28T09:09:39;97593.22;;;17.30;60.79
13553;BME280;6847;48.830;9.116;2023-04-28T09:12:06;97592.75;;;17.20;61.79
13553;BME280;6847;48.830;9.116;2023-04-28T09:14:36;97595.81;;;17.18;62.81
13553;BME280;6847;48.830;9.116;2023-04-28T09:17:10;97595.66;;;17.23;63.37
13553;BME280;6847;48.830;9.116;2023-04-28T09:19:39;97577.78;;;17.17;64.10
13553;BME280;6847;48.830;9.116;2023-04-28T09:22:10;97571.53;;;17.17;64.51
13553;BME280;6847;48.830;9.116;2023-04-28T09:24:38;97594.00;;;17.31;64.94
13553;BME280;6847;48.830;9.116;2023-04-28T09:27:08;97599.63;;;17.34;65.51
13553;BME280;6847;48.830;9.116;2023-04-28T09:29:36;97464.59;;;16.54;65.46
13553;BME280;6847;48.830;9.116;2023-04-28T09:32:13;97597.63;;;17.44;65.94
13553;BME280;6847;48.830;9.116;2023-04-28T09:34:44;97598.22;;;17.58;66.28
13553;BME280;6847;48.830;9.116;2023-04-28T09:37:15;97582.75;;;17.62;66.66
13553;BME280;6847;48.830;9.116;2023-04-28T09:39:45;97562.16;;;17.56;67.04
13553;BME280;6847;48.830;9.116;2023-04-28T09:42:31;97595.94;;;17.98;66.94
13553;BME280;6847;48.830;9.116;2023-04-28T09:44:59;97600.97;;;18.17;67.00
13553;BME280;6847;48.830;9.116;2023-04-28T09:47:34;97601.16;;;18.32;67.61
13553;BME280;6847;48.830;9.116;2023-04-28T09:50:08;97578.91;;;18.34;67.32
13553;BME280;6847;48.830;9.116;2023-04-28T09:52:37;97448.91;;;17.69;67.62
13553;BME280;6847;48.830;9.116;2023-04-28T09:55:07;97596.09;;;18.64;67.95
13553;BME280;6847;48.830;9.116;2023-04-28T09:57:37;97596.06;;;18.84;67.96
13553;BME280;6847;48.830;9.116;2023-04-28T10:00:07;97595.03;;;19.46;68.01
13553;BME280;6847;48.830;9.116;2023-04-28T10:02:36;97590.88;;;20.25;67.73
13553;BME280;6847;48.830;9.116;2023-04-28T10:05:06;97587.84;;;20.83;67.06
13553;BME280;6847;48.830;9.116;2023-04-28T10:07:34;97595.56;;;21.21;66.77
13553;BME280;6847;48.830;9.116;2023-04-28T10:10:04;97562.63;;;20.96;66.43
13553;BME280;6847;48.830;9.116;2023-04-28T10:12:33;97600.97;;;20.89;66.44
13553;BME280;6847;48.830;9.116;2023-04-28T10:15:03;97586.91;;;20.63;66.39
13553;BME280;6847;48.830;9.116;2023-04-28T10:17:31;97591.78;;;20.69;66.04
13553;BME280;6847;48.830;9.116;2023-04-28T10:20:00;97588.00;;;20.74;65.70
13553;BME280;6847;48.830;9.116;2023-04-28T10:22:45;97588.19;;;20.81;65.35
13553;BME280;6847;48.830;9.116;2023-04-28T10:25:25;97537.47;;;20.66;64.73
13553;BME280;6847;48.830;9.116;2023-04-28T10:27:55;97576.34;;;21.09;64.35
13553;BME280;6847;48.830;9.116;2023-04-28T10:30:25;97586.59;;;21.24;63.99
13553;BME280;6847;48.830;9.116;2023-04-28T10:33:22;97582.25;;;21.23;63.76
13553;BME280;6847;48.830;9.116;2023-04-28T10:35:51;97583.34;;;21.06;63.83
13553;BME280;6847;48.830;9.116;2023-04-28T10:38:22;97576.03;;;20.98;63.69
13553;BME280;6847;48.830;9.116;2023-04-28T10:40:51;97588.59;;;20.95;63.67
13553;BME280;6847;48.830;9.116;2023-04-28T10:43:35;97581.97;;;20.84;63.80
13553;BME280;6847;48.830;9.116;2023-04-28T10:46:09;97583.19;;;20.71;63.81
13553;BME280;6847;48.830;9.116;2023-04-28T10:49:05;97596.28;;;20.62;63.89
13553;BME280;6847;48.830;9.116;2023-04-28T10:51:34;97595.50;;;20.61;63.91
13553;BME280;6847;48.830;9.116;2023-04-28T10:54:13;97601.09;;;20.65;63.73
13553;BME280;6847;48.830;9.116;2023-04-28T10:59:46;97595.16;;;20.63;63.44
13553;BME280;6847;48.830;9.116;2023-04-28T11:02:43;97590.53;;;20.67;63.38
13553;BME280;6847;48.830;9.116;2023-04-28T11:05:14;97579.09;;;20.65;63.15
13553;BME280;6847;48.830;9.116;2023-04-28T11:11:14;97587.28;;;21.05;62.55
13553;BME280;6847;48.830;9.116;2023-04-28T11:13:42;97593.16;;;21.19;62.25
13553;BME280;6847;48.830;9.116;2023-04-28T11:16:16;97599.13;;;21.21;62.17
13553;BME280;6847;48.830;9.116;2023-04-28T11:18:51;97461.88;;;20.32;62.28
13553;BME280;6847;48.830;9.116;2023-04-28T11:21:19;97561.75;;;20.92;62.10
13553;BME280;6847;48.830;9.116;2023-04-28T11:23:48;97583.53;;;21.13;62.00
13553;BME280;6847;48.830;9.116;2023-04-28T11:26:17;97595.28;;;21.26;61.92
13553;BME280;6847;48.830;9.116;2023-04-28T11:28:50;97576.75;;;21.23;61.75
13553;BME280;6847;48.830;9.116;2023-04-28T11:31:21;97540.56;;;21.09;61.81
13553;BME280;6847;48.830;9.116;2023-04-28T11:33:58;97590.59;;;21.42;61.50
13553;BME280;6847;48.830;9.116;2023-04-28T11:36:30;97590.59;;;21.42;61.38
13553;BME280;6847;48.830;9.116;2023-04-28T11:38:57;97558.78;;;21.29;61.38
13553;BME280;6847;48.830;9.116;2023-04-28T11:41:26;97589.19;;;21.48;61.34
13553;BME280;6847;48.830;9.116;2023-04-28T11:43:52;97565.03;;;21.41;61.31
13553;BME280;6847;48.830;9.116;2023-04-28T11:46:20;97573.00;;;21.62;60.99
13553;BME280;6847;48.830;9.116;2023-04-28T11:48:48;97574.38;;;21.88;60.73
13553;BME280;6847;48.830;9.116;2023-04-28T11:51:40;97581.47;;;22.20;60.38
13553;BME280;6847;48.830;9.116;2023-04-28T11:54:09;97579.56;;;22.24;60.37
13553;BME280;6847;48.830;9.116;2023-04-28T11:56:41;97532.97;;;22.00;60.25
13553;BME280;6847;48.830;9.116;2023-04-28T11:59:11;97527.44;;;22.00;60.10
13553;BME280;6847;48.830;9.116;2023-04-28T12:01:47;97577.84;;;22.35;60.10
13553;BME280;6847;48.830;9.116;2023-04-28T12:04:25;97578.13;;;22.30;60.06
13553;BME280;6847;48.830;9.116;2023-04-28T12:06:58;97586.41;;;22.30;60.03
13553;BME280;6847;48.830;9.116;2023-04-28T12:09:25;97558.47;;;22.32;59.99
13553;BME280;6847;48.830;9.116;2023-04-28T12:11:56;97577.13;;;22.58;59.77
13553;BME280;6847;48.830;9.116;2023-04-28T12:14:24;97568.03;;;22.57;59.62
13553;BME280;6847;48.830;9.116;2023-04-28T12:16:51;97577.34;;;22.68;59.36
13553;BME280;6847;48.830;9.116;2023-04-28T12:19:26;97563.31;;;22.58;59.42
13553;BME280;6847;48.830;9.116;2023-04-28T12:22:00;97568.84;;;22.58;59.39
13553;BME280;6847;48.830;9.116;2023-04-28T12:24:27;97567.09;;;22.49;59.47
13553;BME280;6847;48.830;9.116;2023-04-28T12:27:15;97579.16;;;22.61;59.30
13553;BME280;6847;48.830;9.116;2023-04-28T12:29:43;97577.56;;;22.60;58.96
13553;BME280;6847;48.830;9.116;2023-04-28T12:32:11;97590.91;;;22.58;59.30
13553;BME280;6847;48.830;9.116;2023-04-28T12:37:06;97600.63;;;22.32;59.48
13553;BME280;6847;48.830;9.116;2023-04-28T12:39:34;97600.88;;;22.08;59.51
13553;BME280;6847;48.830;9.116;2023-04-28T12:42:01;97599.03;;;21.81;59.86
13553;BME280;6847;48.830;9.116;2023-04-28T12:44:34;97590.06;;;21.52;59.98
13553;BME280;6847;48.830;9.116;2023-04-28T12:47:03;97557.63;;;21.14;60.24
13553;BME280;6847;48.830;9.116;2023-04-28T12:49:32;97580.53;;;21.18;60.32
13553;BME280;6847;48.830;9.116;2023-04-28T12:51:59;97574.94;;;21.15;60.03
13553;BME280;6847;48.830;9.116;2023-04-28T12:54:25;97571.59;;;21.37;60.08
13553;BME280;6847;48.830;9.116;2023-04-28T12:56:52;97567.75;;;21.57;59.48
13553;BME280;6847;48.830;9.116;2023-04-28T12:59:20;97570.47;;;21.89;59.04
13553;BME280;6847;48.830;9.116;2023-04-28T13:01:49;97574.00;;;22.05;58.95
13553;BME280;6847;48.830;9.116;2023-04-28T13:04:16;97565.84;;;22.28;58.90
13553;BME280;6847;48.830;9.116;2023-04-28T13:06:43;97568.25;;;22.48;58.57
13553;BME280;6847;48.830;9.116;2023-04-28T13:09:10;97555.50;;;22.60;58.55
13553;BME280;6847;48.830;9.116;2023-04-28T13:11:37;97551.25;;;22.66;58.39
13553;BME280;6847;48.830;9.116;2023-04-28T13:14:04;97559.66;;;22.73;58.52
13553;BME280;6847;48.830;9.116;2023-04-28T13:16:31;97566.50;;;22.98;58.25
13553;BME280;6847;48.830;9.116;2023-04-28T13:19:00;97563.72;;;23.17;58.12
13553;BME280;6847;48.830;9.116;2023-04-28T13:21:27;97566.53;;;23.44;57.79
13553;BME280;6847;48.830;9.116;2023-04-28T13:23:59;97561.81;;;23.67;57.78
13553;BME280;6847;48.830;9.116;2023-04-28T13:26:28;97565.00;;;23.95;57.33
13553;BME280;6847;48.830;9.116;2023-04-28T13:28:54;97558.31;;;24.23;57.12